LFCK/DCM METAR and TAF weather

Enter ICAO airport designator
Station Type Date Time Source
LFCK METAR 2020/04/05 07:00 UTC NOAA

LFCK 050700Z AUTO 12026G36KT 9000 NSC 14/01 Q1017


Station Type Date Time Source
LFCK Decoded METAR 2020/04/05 07:00 UTC NOAA

Station name not available
Apr 05, 2020 - 03:00 AM EDT / 2020.04.05 0700 UTC
Wind: from the ESE (120 degrees) at 30 MPH (26 KT) gusting to 41 MPH (36 KT):0
Visibility: 5 mile(s):0
Temperature: 57 F (14 C)
Dew Point: 33 F (1 C)
Relative Humidity: 41%
Pressure (altimeter): 30.03 in. Hg (1017 hPa)
ob: LFCK 050700Z AUTO 12026G36KT 9000 NSC 14/01 Q1017
cycle: 7

Station Type Date Time Source
LFCK TAF UTC NOAA

Error!

Example: see airport list